Time;durP1;ratioP1;P1;durP2;ratioP2;P2;SDS_P1;SDS_P2;PMS_P1;PMS_P2;Temp;Humidity;BMP_temperature;BMP_pressure;BME280_temperature;BME280_humidity;BME280_pressure;Samples;Min_cycle;Max_cycle;Signal;HPM_P1;HPM_P2
2024/03/08 08:52:15;;;;;;;;;;;;;;;1.09;63.41;100749.94;112851;1249;22371;-57
2024/03/08 08:54:44;;;;;;;;;;;;;;;1.22;62.71;100746.59;112876;1249;22403;-58
2024/03/08 08:57:14;;;;;;;;;;;;;;;1.29;61.97;100744.30;112878;1249;22389;-62
2024/03/08 08:59:45;;;;;;;;;;;;;;;1.28;61.49;100737.20;112886;1249;23565;-56
2024/03/08 09:02:20;;;;;;;;;;;;;;;1.32;62.13;100739.45;112899;1249;22400;-63
2024/03/08 09:04:50;;;;;;;;;;;;;;;1.39;61.75;100737.20;112759;1249;22366;-63
2024/03/08 09:07:20;;;;;;;;;;;;;;;1.45;61.19;100735.55;112574;1249;23151;-55
2024/03/08 09:09:56;;;;;;;;;;;;;;;1.51;60.98;100734.45;112594;1249;22427;-64
2024/03/08 09:13:04;;;;;;;;;;;;;;;1.53;59.42;100731.10;112453;1249;22496;-64
2024/03/08 09:16:17;;;;;;;;;;;;;;;1.48;59.88;100735.33;112606;1249;22466;-64
2024/03/08 09:22:04;;;;;;;;;;;;;;;1.55;59.65;100735.48;112721;1249;22410;-61
2024/03/08 09:25:07;;;;;;;;;;;;;;;1.61;59.19;100736.57;112670;1249;22417;-65
2024/03/08 09:28:06;;;;;;;;;;;;;;;1.66;59.26;100735.95;112682;1249;22406;-63
2024/03/08 09:34:48;;;;;;;;;;;;;;;1.95;58.03;100732.87;112711;1249;22860;-64
2024/03/08 09:37:28;;;;;;;;;;;;;;;2.12;58.38;100732.37;112733;1249;22498;-63
2024/03/08 09:39:55;;;;;;;;;;;;;;;2.32;57.52;100728.02;112719;1249;22401;-62
2024/03/08 09:42:21;;;;;;;;;;;;;;;2.48;57.05;100726.92;112777;1249;22923;-56
2024/03/08 09:44:48;;;;;;;;;;;;;;;2.73;56.84;100724.44;112794;1249;22389;-57
2024/03/08 09:47:16;;;;;;;;;;;;;;;2.99;56.33;100721.13;112865;1249;22382;-64
2024/03/08 09:49:49;;;;;;;;;;;;;;;3.21;55.55;100719.69;112849;1249;22383;-62
2024/03/08 09:52:30;;;;;;;;;;;;;;;3.35;54.37;100720.54;112900;1249;23128;-63
2024/03/08 09:55:22;;;;;;;;;;;;;;;3.35;54.00;100717.96;112727;1249;22397;-56
2024/03/08 09:58:53;;;;;;;;;;;;;;;3.41;53.52;100717.11;112867;1249;22471;-63
2024/03/08 10:00:47;;;;;;;;;;;;;;;3.39;52.26;100713.09;112760;1249;23059;-63
2024/03/08 10:03:42;;;;;;;;;;;;;;;3.42;52.53;100710.11;112634;1249;23662;-62
2024/03/08 10:06:11;;;;;;;;;;;;;;;3.52;51.76;100709.59;112643;1249;22475;-56
2024/03/08 10:08:45;;;;;;;;;;;;;;;3.63;51.64;100704.80;112467;1249;22376;-62
2024/03/08 10:11:14;;;;;;;;;;;;;;;3.78;51.40;100700.45;112615;1249;23212;-62
2024/03/08 10:13:44;;;;;;;;;;;;;;;3.91;50.60;100701.59;112572;1249;22427;-54
2024/03/08 10:16:12;;;;;;;;;;;;;;;3.95;50.83;100694.14;112613;1249;22389;-62
2024/03/08 10:18:40;;;;;;;;;;;;;;;4.01;50.83;100692.61;112614;1249;22480;-56
2024/03/08 10:21:11;;;;;;;;;;;;;;;4.12;50.13;100687.98;112637;1249;22641;-56
2024/03/08 10:23:41;;;;;;;;;;;;;;;4.15;49.89;100678.73;112727;1249;22933;-62
2024/03/08 10:26:14;;;;;;;;;;;;;;;4.06;49.75;100675.34;112669;1249;22761;-55
2024/03/08 10:28:58;;;;;;;;;;;;;;;4.10;48.91;100674.59;112859;1249;22372;-56
2024/03/08 10:33:06;;;;;;;;;;;;;;;4.31;49.38;100667.50;112819;1249;22441;-62
2024/03/08 10:35:39;;;;;;;;;;;;;;;4.80;48.43;100664.33;112762;1249;22499;-63
2024/03/08 10:38:08;;;;;;;;;;;;;;;5.33;47.51;100663.19;112845;1249;22369;-57
2024/03/08 10:40:56;;;;;;;;;;;;;;;6.03;46.05;100662.40;112909;1249;22853;-56
2024/03/08 10:43:36;;;;;;;;;;;;;;;6.66;44.98;100656.07;112861;1249;22981;-57
2024/03/08 10:46:08;;;;;;;;;;;;;;;7.09;43.90;100649.85;112735;1249;22417;-63
2024/03/08 10:48:46;;;;;;;;;;;;;;;7.55;42.90;100643.25;112689;1247;22387;-64
2024/03/08 10:51:21;;;;;;;;;;;;;;;8.04;42.25;100635.39;112847;1249;22406;-64
2024/03/08 10:53:52;;;;;;;;;;;;;;;8.48;40.44;100630.52;112781;1249;22443;-64
2024/03/08 10:56:22;;;;;;;;;;;;;;;8.82;40.63;100625.90;112722;1249;22979;-64
2024/03/08 10:58:51;;;;;;;;;;;;;;;9.32;40.17;100619.16;112832;1249;22384;-66
2024/03/08 11:01:19;;;;;;;;;;;;;;;9.69;37.90;100621.94;112817;1249;23131;-67
2024/03/08 11:03:48;;;;;;;;;;;;;;;9.73;37.45;100620.94;112911;1249;22469;-65
2024/03/08 11:06:29;;;;;;;;;;;;;;;9.79;37.64;100618.20;112642;1249;22833;-64
2024/03/08 11:08:58;;;;;;;;;;;;;;;10.06;37.51;100614.41;112799;1249;22392;-56
2024/03/08 11:11:31;;;;;;;;;;;;;;;10.33;36.07;100605.02;112849;1249;22920;-56
2024/03/08 11:14:08;;;;;;;;;;;;;;;10.31;36.16;100600.66;112654;1249;23126;-59
2024/03/08 11:16:41;;;;;;;;;;;;;;;10.38;36.64;100597.90;112673;1249;22602;-59
2024/03/08 11:27:06;;;;;;;;;;;;;;;11.67;34.35;100579.42;112694;1249;22371;-57
2024/03/08 11:29:35;;;;;;;;;;;;;;;11.72;33.69;100580.64;112662;1250;22351;-61
2024/03/08 11:32:10;;;;;;;;;;;;;;;11.64;33.76;100572.42;112741;1249;22387;-61
2024/03/08 11:38:49;;;;;;;;;;;;;;;12.20;33.05;100564.70;112675;1249;22905;-63
2024/03/08 11:41:27;;;;;;;;;;;;;;;12.22;32.51;100561.90;112710;1249;22438;-61
2024/03/08 11:44:15;;;;;;;;;;;;;;;11.78;32.19;100557.94;112839;1249;22448;-57
2024/03/08 11:48:00;;;;;;;;;;;;;;;11.01;32.98;100551.40;112526;1252;22407;-61
2024/03/08 11:50:59;;;;;;;;;;;;;;;10.43;33.49;100551.90;112446;1252;22481;-55
2024/03/08 11:53:27;;;;;;;;;;;;;;;10.04;34.36;100551.84;112472;1252;23655;-59
2024/03/08 11:55:54;;;;;;;;;;;;;;;9.79;34.67;100550.27;112466;1252;23612;-60
2024/03/08 11:59:23;;;;;;;;;;;;;;;9.65;35.15;100551.20;112508;1252;22396;-56
2024/03/08 12:03:10;;;;;;;;;;;;;;;9.48;35.72;100546.89;112492;1252;23240;-61
2024/03/08 12:05:38;;;;;;;;;;;;;;;9.35;35.81;100542.77;112421;1252;22469;-55
2024/03/08 12:08:12;;;;;;;;;;;;;;;9.22;36.01;100535.52;112329;1252;22483;-58
2024/03/08 12:10:40;;;;;;;;;;;;;;;9.16;36.34;100535.27;112188;1252;22861;-61
2024/03/08 12:13:13;;;;;;;;;;;;;;;8.96;35.49;100535.26;112344;1252;23152;-56
2024/03/08 12:15:44;;;;;;;;;;;;;;;8.69;36.09;100530.61;112306;1252;22529;-61
